Camellia — VRCP9 — position and weather

sailwx.info

Track history (hours):
 
Tides and Currents Weather Stations Pressure Air Temp Water Temp Dewpoint Dewpoint Depression Visibility Wind Speed Wind Dir Waves Ship Positions

Camellia

Last reported at 2014-Sep-01 03:11 UTC. Time now 2014-Sep-01 07:48 UTC.
Position N 46°11' W 007°37'.

Length 222 m; draft 7.8 m.

Type: Ship (hazmat cat C). MMSI: 477791900.

Date/timePositionNaut miles runAvg speedWind from/ knotsBaromVisibWave heightAir tempDewpointWater temp
2014-Sep-01 03:11N 46°11' W 007°37'34317.2
2014-Aug-31 07:15N 40°42' W 009°49'1920.0
2014-Aug-31 06:18N 40°23' W 009°48'3619.7
2014-Aug-31 04:28N 39°47' W 009°50'2219.4
2014-Aug-31 03:20N 39°25' W 009°50'1519.4
2014-Aug-31 02:32N 39°09' W 009°50'2619.0
2014-Aug-31 01:11N 38°43' W 009°51'1518.9
2014-Aug-31 00:22N 38°28' W 009°47'1618.2
2014-Aug-30 23:28N 38°12' W 009°42'1819.2
2014-Aug-30 22:33N 37°55' W 009°37'1919.2
2014-Aug-30 21:33N 37°37' W 009°31'1919.5
2014-Aug-30 20:34N 37°18' W 009°26'1919.3
2014-Aug-30 19:34N 36°59' W 009°21'1818.0
2014-Aug-30 18:34N 36°44' W 009°08'1717.4
2014-Aug-30 17:33N 36°31' W 008°54'1918.6
2014-Aug-30 16:34N 36°14' W 008°45'1818.1
2014-Aug-30 15:34N 35°57' W 008°38'138 6.9
2014-Aug-29 19:33N 33°51' W 007°30'2221.9
2014-Aug-29 18:33N 34°10' W 007°17'2322.5
2014-Aug-29 17:33N 34°30' W 007°04'121 4.0
2014-Aug-28 11:14N 35°60' W 005°26'5 7.8
2014-Aug-28 10:33N 36°01' W 005°19'136 6.5
2014-Aug-27 13:33N 36°09' W 002°32'1716.4
2014-Aug-27 12:30N 36°10' W 002°11'1516.4
2014-Aug-27 11:33N 36°12' W 001°52'1716.5
2014-Aug-27 10:33N 36°16' W 001°32'1716.7
2014-Aug-27 09:33N 36°20' W 001°12'1716.8
2014-Aug-27 08:33N 36°23' W 000°51'1716.6
2014-Aug-27 07:33N 36°27' W 000°31'1616.3
2014-Aug-27 06:33N 36°31' W 000°12'1616.1
2014-Aug-27 05:33N 36°35' E 000°08'1615.9
2014-Aug-27 04:33N 36°39' E 000°27'1515.1
2014-Aug-27 03:33N 36°42' E 000°45'1915.6
2014-Aug-27 02:22N 36°47' E 001°08'1316.2
2014-Aug-27 01:33N 36°50' E 001°24'1616.3
2014-Aug-27 00:33N 36°53' E 001°44'1716.4
2014-Aug-26 23:32N 36°57' E 002°04'1616.4
2014-Aug-26 22:33N 37°01' E 002°23'1616.2
2014-Aug-26 21:33N 37°05' E 002°43'1616.0
2014-Aug-26 20:33N 37°09' E 003°03'1616.5
2014-Aug-26 19:33N 37°13' E 003°23'1717.0
2014-Aug-26 18:33N 37°17' E 003°43'1616.4
2014-Aug-26 17:33N 37°20' E 004°04'1716.7
2014-Aug-26 16:33N 37°20' E 004°25'1616.4
2014-Aug-26 15:33N 37°19' E 004°45'1716.6
2014-Aug-26 14:33N 37°19' E 005°06'1717.0
2014-Aug-26 13:33N 37°19' E 005°27'1717.0
2014-Aug-26 12:33N 37°19' E 005°49'1817.1
2014-Aug-26 11:29N 37°18' E 006°12'1415.4
2014-Aug-26 10:33N 37°18' E 006°30'1615.6
2014-Aug-26 09:33N 37°17' E 006°49'1515.2
2014-Aug-26 08:33N 37°17' E 007°09'1615.4
2014-Aug-26 07:33N 37°17' E 007°28'1615.6
2014-Aug-26 06:33N 37°17' E 007°48'1413.7
2014-Aug-26 05:32N 37°16' E 008°05'1211.8
2014-Aug-26 04:33N 37°16' E 008°20'1211.8
2014-Aug-26 03:33N 37°17' E 008°35'1111.5
2014-Aug-26 02:33N 37°20' E 008°48'1211.5
2014-Aug-26 01:33N 37°23' E 009°02'1111.4
2014-Aug-26 00:33N 37°27' E 009°16'1111.3
2014-Aug-25 23:33N 37°30' E 009°29'1111.2
2014-Aug-25 22:33N 37°34' E 009°43'1111.1
2014-Aug-25 21:33N 37°38' E 009°56'1111.0
2014-Aug-25 20:33N 37°39' E 010°10'1111.1
2014-Aug-25 19:33N 37°37' E 010°24'1111.1
2014-Aug-25 18:33N 37°35' E 010°37'1111.0
2014-Aug-25 17:33N 37°33' E 010°51'1211.5
2014-Aug-25 16:33N 37°29' E 011°05'1916.2
2014-Aug-25 15:21N 37°19' E 011°26'1816.1
2014-Aug-25 14:14N 37°10' E 011°45'1415.5
2014-Aug-25 13:21N 37°02' E 011°59'1215.7
2014-Aug-25 12:34N 36°55' E 012°12'1715.9
2014-Aug-25 11:30N 36°46' E 012°30'1516.0
2014-Aug-25 10:33N 36°38' E 012°46'1515.4
2014-Aug-25 09:34N 36°29' E 013°01'1515.0
2014-Aug-25 08:32N 36°20' E 013°17'1515.0
2014-Aug-25 07:33N 36°12' E 013°33'1615.8
2014-Aug-25 06:33N 36°04' E 013°49'1616.3
2014-Aug-25 05:34N 35°55' E 014°06'1918.8
2014-Aug-25 04:34N 35°45' E 014°26'7 6.7
2014-Aug-25 03:31N 35°49' E 014°33'0 0.0
2014-Aug-25 02:22N 35°49' E 014°33'0 0.0
2014-Aug-25 00:19N 35°49' E 014°33'0 0.0
2014-Aug-24 19:31N 35°49' E 014°33'0 0.0
2014-Aug-24 18:31N 35°49' E 014°33'0 0.0
2014-Aug-24 17:31N 35°49' E 014°33'0 0.0
2014-Aug-24 16:34N 35°49' E 014°33'0 0.0
2014-Aug-24 15:33N 35°49' E 014°33'0 0.0
2014-Aug-24 14:33N 35°49' E 014°33'3 2.6
2014-Aug-24 13:33N 35°48' E 014°35'1313.5
2014-Aug-24 12:33N 35°48' E 014°52'1918.7
2014-Aug-24 11:33N 35°49' E 015°15'1918.9
2014-Aug-24 10:34N 35°50' E 015°38'22319.6
2014-Aug-23 23:14N 35°57' E 020°13'328 7.5
2014-Aug-22 03:30N 39°18' E 025°40'  
Track history (hours):
 
Tides and Currents Weather Stations Pressure Air Temp Water Temp Dewpoint Dewpoint Depression Visibility Wind Speed Wind Dir Waves Ship Positions

Camellia

Last reported at 2014-Sep-01 03:11 UTC. Time now 2014-Sep-01 07:48 UTC.
Position N 46°11' W 007°37'.

Length 222 m; draft 7.8 m.

Type: Ship (hazmat cat C). MMSI: 477791900.

Date/timePositionNaut miles runAvg speedWind from/ knotsBaromVisibWave heightAir tempDewpointWater temp
2014-Sep-01 03:11N 46°11' W 007°37'34317.2
2014-Aug-31 07:15N 40°42' W 009°49'1920.0
2014-Aug-31 06:18N 40°23' W 009°48'3619.7
2014-Aug-31 04:28N 39°47' W 009°50'2219.4
2014-Aug-31 03:20N 39°25' W 009°50'1519.4
2014-Aug-31 02:32N 39°09' W 009°50'2619.0
2014-Aug-31 01:11N 38°43' W 009°51'1518.9
2014-Aug-31 00:22N 38°28' W 009°47'1618.2
2014-Aug-30 23:28N 38°12' W 009°42'1819.2
2014-Aug-30 22:33N 37°55' W 009°37'1919.2
2014-Aug-30 21:33N 37°37' W 009°31'1919.5
2014-Aug-30 20:34N 37°18' W 009°26'1919.3
2014-Aug-30 19:34N 36°59' W 009°21'1818.0
2014-Aug-30 18:34N 36°44' W 009°08'1717.4
2014-Aug-30 17:33N 36°31' W 008°54'1918.6
2014-Aug-30 16:34N 36°14' W 008°45'1818.1
2014-Aug-30 15:34N 35°57' W 008°38'138 6.9
2014-Aug-29 19:33N 33°51' W 007°30'2221.9
2014-Aug-29 18:33N 34°10' W 007°17'2322.5
2014-Aug-29 17:33N 34°30' W 007°04'121 4.0
2014-Aug-28 11:14N 35°60' W 005°26'5 7.8
2014-Aug-28 10:33N 36°01' W 005°19'136 6.5
2014-Aug-27 13:33N 36°09' W 002°32'1716.4
2014-Aug-27 12:30N 36°10' W 002°11'1516.4
2014-Aug-27 11:33N 36°12' W 001°52'1716.5
2014-Aug-27 10:33N 36°16' W 001°32'1716.7
2014-Aug-27 09:33N 36°20' W 001°12'1716.8
2014-Aug-27 08:33N 36°23' W 000°51'1716.6
2014-Aug-27 07:33N 36°27' W 000°31'1616.3
2014-Aug-27 06:33N 36°31' W 000°12'1616.1
2014-Aug-27 05:33N 36°35' E 000°08'1615.9
2014-Aug-27 04:33N 36°39' E 000°27'1515.1
2014-Aug-27 03:33N 36°42' E 000°45'1915.6
2014-Aug-27 02:22N 36°47' E 001°08'1316.2
2014-Aug-27 01:33N 36°50' E 001°24'1616.3
2014-Aug-27 00:33N 36°53' E 001°44'1716.4
2014-Aug-26 23:32N 36°57' E 002°04'1616.4
2014-Aug-26 22:33N 37°01' E 002°23'1616.2
2014-Aug-26 21:33N 37°05' E 002°43'1616.0
2014-Aug-26 20:33N 37°09' E 003°03'1616.5
2014-Aug-26 19:33N 37°13' E 003°23'1717.0
2014-Aug-26 18:33N 37°17' E 003°43'1616.4
2014-Aug-26 17:33N 37°20' E 004°04'1716.7
2014-Aug-26 16:33N 37°20' E 004°25'1616.4
2014-Aug-26 15:33N 37°19' E 004°45'1716.6
2014-Aug-26 14:33N 37°19' E 005°06'1717.0
2014-Aug-26 13:33N 37°19' E 005°27'1717.0
2014-Aug-26 12:33N 37°19' E 005°49'1817.1
2014-Aug-26 11:29N 37°18' E 006°12'1415.4
2014-Aug-26 10:33N 37°18' E 006°30'1615.6
2014-Aug-26 09:33N 37°17' E 006°49'1515.2
2014-Aug-26 08:33N 37°17' E 007°09'1615.4
2014-Aug-26 07:33N 37°17' E 007°28'1615.6
2014-Aug-26 06:33N 37°17' E 007°48'1413.7
2014-Aug-26 05:32N 37°16' E 008°05'1211.8
2014-Aug-26 04:33N 37°16' E 008°20'1211.8
2014-Aug-26 03:33N 37°17' E 008°35'1111.5
2014-Aug-26 02:33N 37°20' E 008°48'1211.5
2014-Aug-26 01:33N 37°23' E 009°02'1111.4
2014-Aug-26 00:33N 37°27' E 009°16'1111.3
2014-Aug-25 23:33N 37°30' E 009°29'1111.2
2014-Aug-25 22:33N 37°34' E 009°43'1111.1
2014-Aug-25 21:33N 37°38' E 009°56'1111.0
2014-Aug-25 20:33N 37°39' E 010°10'1111.1
2014-Aug-25 19:33N 37°37' E 010°24'1111.1
2014-Aug-25 18:33N 37°35' E 010°37'1111.0
2014-Aug-25 17:33N 37°33' E 010°51'1211.5
2014-Aug-25 16:33N 37°29' E 011°05'1916.2
2014-Aug-25 15:21N 37°19' E 011°26'1816.1
2014-Aug-25 14:14N 37°10' E 011°45'1415.5
2014-Aug-25 13:21N 37°02' E 011°59'1215.7
2014-Aug-25 12:34N 36°55' E 012°12'1715.9
2014-Aug-25 11:30N 36°46' E 012°30'1516.0
2014-Aug-25 10:33N 36°38' E 012°46'1515.4
2014-Aug-25 09:34N 36°29' E 013°01'1515.0
2014-Aug-25 08:32N 36°20' E 013°17'1515.0
2014-Aug-25 07:33N 36°12' E 013°33'1615.8
2014-Aug-25 06:33N 36°04' E 013°49'1616.3
2014-Aug-25 05:34N 35°55' E 014°06'1918.8
2014-Aug-25 04:34N 35°45' E 014°26'7 6.7
2014-Aug-25 03:31N 35°49' E 014°33'0 0.0
2014-Aug-25 02:22N 35°49' E 014°33'0 0.0
2014-Aug-25 00:19N 35°49' E 014°33'0 0.0
2014-Aug-24 19:31N 35°49' E 014°33'0 0.0
2014-Aug-24 18:31N 35°49' E 014°33'0 0.0
2014-Aug-24 17:31N 35°49' E 014°33'0 0.0
2014-Aug-24 16:34N 35°49' E 014°33'0 0.0
2014-Aug-24 15:33N 35°49' E 014°33'0 0.0
2014-Aug-24 14:33N 35°49' E 014°33'3 2.6
2014-Aug-24 13:33N 35°48' E 014°35'1313.5
2014-Aug-24 12:33N 35°48' E 014°52'1918.7
2014-Aug-24 11:33N 35°49' E 015°15'1918.9
2014-Aug-24 10:34N 35°50' E 015°38'22319.6
2014-Aug-23 23:14N 35°57' E 020°13'328 7.5
2014-Aug-22 03:30N 39°18' E 025°40'  

Dump ship's entire track history